sensor_id;sensor_type;location;lat;lon;timestamp;P1;durP1;ratioP1;P2;durP2;ratioP2
34060;SDS011;20336;-33.424;-70.638;2022-10-16T00:02:23;12.57;;;2.63;;
34060;SDS011;20336;-33.424;-70.638;2022-10-16T00:04:50;8.20;;;2.47;;
34060;SDS011;20336;-33.424;-70.638;2022-10-16T00:07:17;54.35;;;4.93;;
34060;SDS011;20336;-33.424;-70.638;2022-10-16T00:09:43;18.83;;;2.75;;
34060;SDS011;20336;-33.424;-70.638;2022-10-16T00:12:10;9.27;;;2.15;;
34060;SDS011;20336;-33.424;-70.638;2022-10-16T00:14:37;9.27;;;2.47;;
34060;SDS011;20336;-33.424;-70.638;2022-10-16T00:17:07;6.32;;;2.67;;
34060;SDS011;20336;-33.424;-70.638;2022-10-16T00:19:33;10.43;;;2.65;;
34060;SDS011;20336;-33.424;-70.638;2022-10-16T00:22:00;11.30;;;2.67;;
34060;SDS011;20336;-33.424;-70.638;2022-10-16T00:24:27;5.05;;;2.00;;
34060;SDS011;20336;-33.424;-70.638;2022-10-16T00:26:54;6.70;;;2.20;;
34060;SDS011;20336;-33.424;-70.638;2022-10-16T00:29:21;5.50;;;1.80;;
34060;SDS011;20336;-33.424;-70.638;2022-10-16T00:31:48;6.80;;;2.38;;
34060;SDS011;20336;-33.424;-70.638;2022-10-16T00:34:15;6.68;;;2.25;;
34060;SDS011;20336;-33.424;-70.638;2022-10-16T00:36:42;6.00;;;2.10;;
34060;SDS011;20336;-33.424;-70.638;2022-10-16T00:39:08;5.95;;;2.15;;
34060;SDS011;20336;-33.424;-70.638;2022-10-16T00:41:35;8.30;;;2.40;;
34060;SDS011;20336;-33.424;-70.638;2022-10-16T00:44:03;6.78;;;2.67;;
34060;SDS011;20336;-33.424;-70.638;2022-10-16T00:46:40;10.43;;;2.38;;
34060;SDS011;20336;-33.424;-70.638;2022-10-16T00:49:09;8.68;;;2.70;;
34060;SDS011;20336;-33.424;-70.638;2022-10-16T00:51:37;7.95;;;2.47;;
34060;SDS011;20336;-33.424;-70.638;2022-10-16T00:54:09;7.75;;;2.30;;
34060;SDS011;20336;-33.424;-70.638;2022-10-16T00:56:36;8.32;;;2.35;;
34060;SDS011;20336;-33.424;-70.638;2022-10-16T00:59:04;6.35;;;2.17;;
34060;SDS011;20336;-33.424;-70.638;2022-10-16T01:01:33;11.68;;;2.45;;
34060;SDS011;20336;-33.424;-70.638;2022-10-16T01:04:00;8.90;;;2.33;;
34060;SDS011;20336;-33.424;-70.638;2022-10-16T01:11:48;9.13;;;2.30;;
34060;SDS011;20336;-33.424;-70.638;2022-10-16T01:16:55;12.40;;;2.90;;
34060;SDS011;20336;-33.424;-70.638;2022-10-16T01:19:36;5.43;;;1.92;;
34060;SDS011;20336;-33.424;-70.638;2022-10-16T01:22:06;4.30;;;2.03;;
34060;SDS011;20336;-33.424;-70.638;2022-10-16T01:29:37;7.85;;;2.45;;
34060;SDS011;20336;-33.424;-70.638;2022-10-16T01:32:17;5.18;;;2.20;;
34060;SDS011;20336;-33.424;-70.638;2022-10-16T01:37:46;5.10;;;1.98;;
34060;SDS011;20336;-33.424;-70.638;2022-10-16T01:40:15;6.75;;;2.00;;
34060;SDS011;20336;-33.424;-70.638;2022-10-16T01:42:45;7.10;;;2.30;;
34060;SDS011;20336;-33.424;-70.638;2022-10-16T01:45:13;6.17;;;2.00;;
34060;SDS011;20336;-33.424;-70.638;2022-10-16T01:47:43;8.98;;;2.20;;
34060;SDS011;20336;-33.424;-70.638;2022-10-16T01:50:10;9.07;;;2.35;;
34060;SDS011;20336;-33.424;-70.638;2022-10-16T01:52:39;6.32;;;2.50;;
34060;SDS011;20336;-33.424;-70.638;2022-10-16T01:55:08;7.53;;;3.38;;
34060;SDS011;20336;-33.424;-70.638;2022-10-16T01:57:36;11.17;;;4.13;;
34060;SDS011;20336;-33.424;-70.638;2022-10-16T02:00:07;14.23;;;5.35;;
34060;SDS011;20336;-33.424;-70.638;2022-10-16T02:02:34;14.30;;;6.55;;
34060;SDS011;20336;-33.424;-70.638;2022-10-16T02:05:05;6.10;;;3.00;;
34060;SDS011;20336;-33.424;-70.638;2022-10-16T02:07:34;9.82;;;4.82;;
34060;SDS011;20336;-33.424;-70.638;2022-10-16T02:10:01;10.90;;;4.13;;
34060;SDS011;20336;-33.424;-70.638;2022-10-16T02:12:30;11.97;;;3.43;;
34060;SDS011;20336;-33.424;-70.638;2022-10-16T02:14:57;10.37;;;5.83;;
34060;SDS011;20336;-33.424;-70.638;2022-10-16T02:17:24;9.83;;;3.17;;
34060;SDS011;20336;-33.424;-70.638;2022-10-16T02:19:52;7.73;;;4.23;;
34060;SDS011;20336;-33.424;-70.638;2022-10-16T02:25:15;9.07;;;3.40;;
34060;SDS011;20336;-33.424;-70.638;2022-10-16T02:30:19;8.57;;;3.03;;
34060;SDS011;20336;-33.424;-70.638;2022-10-16T02:32:48;7.90;;;2.73;;
34060;SDS011;20336;-33.424;-70.638;2022-10-16T02:35:16;7.93;;;3.30;;
34060;SDS011;20336;-33.424;-70.638;2022-10-16T02:37:43;13.07;;;2.77;;
34060;SDS011;20336;-33.424;-70.638;2022-10-16T02:40:11;7.83;;;3.10;;
34060;SDS011;20336;-33.424;-70.638;2022-10-16T02:42:39;8.67;;;3.20;;
34060;SDS011;20336;-33.424;-70.638;2022-10-16T02:45:07;8.90;;;2.80;;
34060;SDS011;20336;-33.424;-70.638;2022-10-16T02:47:34;7.53;;;2.90;;
34060;SDS011;20336;-33.424;-70.638;2022-10-16T02:50:01;8.80;;;3.10;;
34060;SDS011;20336;-33.424;-70.638;2022-10-16T02:52:28;6.27;;;2.53;;
34060;SDS011;20336;-33.424;-70.638;2022-10-16T02:54:55;12.90;;;2.80;;
34060;SDS011;20336;-33.424;-70.638;2022-10-16T02:57:21;7.37;;;3.17;;
34060;SDS011;20336;-33.424;-70.638;2022-10-16T02:59:48;8.57;;;3.13;;
34060;SDS011;20336;-33.424;-70.638;2022-10-16T03:02:15;17.30;;;3.00;;
34060;SDS011;20336;-33.424;-70.638;2022-10-16T03:04:42;7.60;;;2.93;;
34060;SDS011;20336;-33.424;-70.638;2022-10-16T03:07:09;5.90;;;2.70;;
34060;SDS011;20336;-33.424;-70.638;2022-10-16T03:09:36;9.87;;;2.67;;
34060;SDS011;20336;-33.424;-70.638;2022-10-16T03:12:03;8.43;;;2.87;;
34060;SDS011;20336;-33.424;-70.638;2022-10-16T03:14:30;10.60;;;3.40;;
34060;SDS011;20336;-33.424;-70.638;2022-10-16T03:16:57;11.23;;;3.10;;
34060;SDS011;20336;-33.424;-70.638;2022-10-16T03:19:23;9.57;;;2.77;;
34060;SDS011;20336;-33.424;-70.638;2022-10-16T03:21:50;9.13;;;2.80;;
34060;SDS011;20336;-33.424;-70.638;2022-10-16T03:24:17;10.13;;;3.47;;
34060;SDS011;20336;-33.424;-70.638;2022-10-16T03:26:44;7.67;;;2.97;;
34060;SDS011;20336;-33.424;-70.638;2022-10-16T03:29:11;5.50;;;2.50;;
34060;SDS011;20336;-33.424;-70.638;2022-10-16T03:31:38;7.63;;;2.47;;
34060;SDS011;20336;-33.424;-70.638;2022-10-16T03:34:05;7.03;;;2.90;;
34060;SDS011;20336;-33.424;-70.638;2022-10-16T03:36:32;7.03;;;2.70;;
34060;SDS011;20336;-33.424;-70.638;2022-10-16T03:38:59;5.40;;;2.00;;
34060;SDS011;20336;-33.424;-70.638;2022-10-16T03:41:26;7.33;;;2.80;;
34060;SDS011;20336;-33.424;-70.638;2022-10-16T03:43:52;7.67;;;2.73;;
34060;SDS011;20336;-33.424;-70.638;2022-10-16T03:46:19;7.50;;;2.90;;
34060;SDS011;20336;-33.424;-70.638;2022-10-16T03:48:46;8.17;;;3.37;;
34060;SDS011;20336;-33.424;-70.638;2022-10-16T03:51:13;7.47;;;3.10;;
34060;SDS011;20336;-33.424;-70.638;2022-10-16T03:53:40;7.93;;;2.70;;
34060;SDS011;20336;-33.424;-70.638;2022-10-16T03:56:07;6.77;;;2.80;;
34060;SDS011;20336;-33.424;-70.638;2022-10-16T03:58:33;6.23;;;3.20;;
34060;SDS011;20336;-33.424;-70.638;2022-10-16T04:01:00;9.10;;;3.00;;
34060;SDS011;20336;-33.424;-70.638;2022-10-16T04:03:27;8.50;;;3.30;;
34060;SDS011;20336;-33.424;-70.638;2022-10-16T04:05:54;9.10;;;3.37;;
34060;SDS011;20336;-33.424;-70.638;2022-10-16T04:08:21;10.67;;;3.27;;
34060;SDS011;20336;-33.424;-70.638;2022-10-16T04:10:48;11.13;;;3.07;;
34060;SDS011;20336;-33.424;-70.638;2022-10-16T04:13:15;8.07;;;2.70;;
34060;SDS011;20336;-33.424;-70.638;2022-10-16T04:15:42;10.47;;;3.30;;
34060;SDS011;20336;-33.424;-70.638;2022-10-16T04:18:09;8.13;;;2.70;;
34060;SDS011;20336;-33.424;-70.638;2022-10-16T04:20:35;10.53;;;3.50;;
34060;SDS011;20336;-33.424;-70.638;2022-10-16T04:23:02;9.23;;;3.90;;
34060;SDS011;20336;-33.424;-70.638;2022-10-16T04:25:30;10.77;;;3.30;;
34060;SDS011;20336;-33.424;-70.638;2022-10-16T04:27:57;8.20;;;2.87;;
34060;SDS011;20336;-33.424;-70.638;2022-10-16T04:30:24;12.13;;;3.33;;
34060;SDS011;20336;-33.424;-70.638;2022-10-16T04:32:51;5.67;;;2.67;;
34060;SDS011;20336;-33.424;-70.638;2022-10-16T04:35:18;8.57;;;3.50;;
34060;SDS011;20336;-33.424;-70.638;2022-10-16T04:37:45;7.73;;;3.20;;
34060;SDS011;20336;-33.424;-70.638;2022-10-16T04:40:12;6.87;;;3.10;;
34060;SDS011;20336;-33.424;-70.638;2022-10-16T04:42:39;8.57;;;3.30;;
34060;SDS011;20336;-33.424;-70.638;2022-10-16T04:45:06;15.63;;;3.57;;
34060;SDS011;20336;-33.424;-70.638;2022-10-16T04:47:34;13.93;;;3.63;;
34060;SDS011;20336;-33.424;-70.638;2022-10-16T04:50:01;9.70;;;3.80;;
34060;SDS011;20336;-33.424;-70.638;2022-10-16T04:52:28;11.07;;;3.70;;
34060;SDS011;20336;-33.424;-70.638;2022-10-16T04:54:57;8.63;;;3.80;;
34060;SDS011;20336;-33.424;-70.638;2022-10-16T04:57:27;10.73;;;3.60;;
34060;SDS011;20336;-33.424;-70.638;2022-10-16T04:59:54;11.57;;;3.73;;
34060;SDS011;20336;-33.424;-70.638;2022-10-16T05:02:20;11.23;;;4.00;;
34060;SDS011;20336;-33.424;-70.638;2022-10-16T05:04:47;7.60;;;4.10;;
34060;SDS011;20336;-33.424;-70.638;2022-10-16T05:07:14;9.43;;;3.47;;
34060;SDS011;20336;-33.424;-70.638;2022-10-16T05:09:41;12.80;;;3.73;;
34060;SDS011;20336;-33.424;-70.638;2022-10-16T05:12:08;9.63;;;3.50;;
34060;SDS011;20336;-33.424;-70.638;2022-10-16T05:14:35;14.17;;;3.73;;
34060;SDS011;20336;-33.424;-70.638;2022-10-16T05:17:02;8.73;;;3.03;;
34060;SDS011;20336;-33.424;-70.638;2022-10-16T05:19:28;7.87;;;3.10;;
34060;SDS011;20336;-33.424;-70.638;2022-10-16T05:21:55;6.60;;;3.17;;
34060;SDS011;20336;-33.424;-70.638;2022-10-16T05:24:22;9.33;;;3.37;;
34060;SDS011;20336;-33.424;-70.638;2022-10-16T05:26:49;8.20;;;3.37;;
34060;SDS011;20336;-33.424;-70.638;2022-10-16T05:29:17;10.67;;;3.60;;
34060;SDS011;20336;-33.424;-70.638;2022-10-16T05:31:43;14.00;;;3.87;;
34060;SDS011;20336;-33.424;-70.638;2022-10-16T05:34:10;8.37;;;3.53;;
34060;SDS011;20336;-33.424;-70.638;2022-10-16T05:36:37;8.97;;;3.17;;
34060;SDS011;20336;-33.424;-70.638;2022-10-16T05:39:04;9.63;;;3.27;;
34060;SDS011;20336;-33.424;-70.638;2022-10-16T05:41:31;9.47;;;3.27;;
34060;SDS011;20336;-33.424;-70.638;2022-10-16T05:43:58;8.63;;;3.10;;
34060;SDS011;20336;-33.424;-70.638;2022-10-16T05:46:25;9.23;;;3.37;;
34060;SDS011;20336;-33.424;-70.638;2022-10-16T05:48:52;9.07;;;3.47;;
34060;SDS011;20336;-33.424;-70.638;2022-10-16T05:51:19;6.40;;;3.17;;
34060;SDS011;20336;-33.424;-70.638;2022-10-16T05:53:46;11.70;;;3.53;;
34060;SDS011;20336;-33.424;-70.638;2022-10-16T05:56:12;8.03;;;2.60;;
34060;SDS011;20336;-33.424;-70.638;2022-10-16T05:58:39;10.43;;;3.37;;
34060;SDS011;20336;-33.424;-70.638;2022-10-16T06:01:09;10.43;;;3.33;;
34060;SDS011;20336;-33.424;-70.638;2022-10-16T06:03:36;10.47;;;3.80;;
34060;SDS011;20336;-33.424;-70.638;2022-10-16T06:06:10;7.20;;;3.10;;
34060;SDS011;20336;-33.424;-70.638;2022-10-16T06:08:37;14.27;;;3.90;;
34060;SDS011;20336;-33.424;-70.638;2022-10-16T06:11:05;9.10;;;3.60;;
34060;SDS011;20336;-33.424;-70.638;2022-10-16T06:13:32;10.17;;;3.43;;
34060;SDS011;20336;-33.424;-70.638;2022-10-16T06:15:59;11.90;;;3.63;;
34060;SDS011;20336;-33.424;-70.638;2022-10-16T06:18:27;11.30;;;4.30;;
34060;SDS011;20336;-33.424;-70.638;2022-10-16T06:20:54;8.40;;;3.60;;
34060;SDS011;20336;-33.424;-70.638;2022-10-16T06:23:21;10.77;;;4.13;;
34060;SDS011;20336;-33.424;-70.638;2022-10-16T06:25:48;11.97;;;3.67;;
34060;SDS011;20336;-33.424;-70.638;2022-10-16T06:28:15;14.90;;;4.90;;
34060;SDS011;20336;-33.424;-70.638;2022-10-16T06:30:42;12.23;;;3.70;;
34060;SDS011;20336;-33.424;-70.638;2022-10-16T06:33:10;13.27;;;3.97;;
34060;SDS011;20336;-33.424;-70.638;2022-10-16T06:35:37;6.83;;;3.30;;
34060;SDS011;20336;-33.424;-70.638;2022-10-16T06:38:03;8.23;;;3.33;;
34060;SDS011;20336;-33.424;-70.638;2022-10-16T06:40:30;8.10;;;3.17;;
34060;SDS011;20336;-33.424;-70.638;2022-10-16T06:42:57;9.13;;;3.60;;
34060;SDS011;20336;-33.424;-70.638;2022-10-16T06:45:24;9.33;;;3.57;;
34060;SDS011;20336;-33.424;-70.638;2022-10-16T06:47:51;9.47;;;3.23;;
34060;SDS011;20336;-33.424;-70.638;2022-10-16T06:50:18;8.73;;;3.53;;
34060;SDS011;20336;-33.424;-70.638;2022-10-16T06:52:44;11.80;;;3.70;;
34060;SDS011;20336;-33.424;-70.638;2022-10-16T06:55:11;9.80;;;3.67;;
34060;SDS011;20336;-33.424;-70.638;2022-10-16T06:57:38;8.53;;;3.83;;
34060;SDS011;20336;-33.424;-70.638;2022-10-16T07:00:05;8.17;;;3.20;;
34060;SDS011;20336;-33.424;-70.638;2022-10-16T07:02:32;11.83;;;3.97;;
34060;SDS011;20336;-33.424;-70.638;2022-10-16T07:04:59;11.13;;;4.20;;
34060;SDS011;20336;-33.424;-70.638;2022-10-16T07:07:26;17.13;;;4.23;;
34060;SDS011;20336;-33.424;-70.638;2022-10-16T07:09:53;10.77;;;3.80;;
34060;SDS011;20336;-33.424;-70.638;2022-10-16T07:12:20;12.30;;;4.07;;
34060;SDS011;20336;-33.424;-70.638;2022-10-16T07:14:47;13.53;;;4.47;;
34060;SDS011;20336;-33.424;-70.638;2022-10-16T07:17:13;15.47;;;4.33;;
34060;SDS011;20336;-33.424;-70.638;2022-10-16T07:19:40;12.60;;;4.43;;
34060;SDS011;20336;-33.424;-70.638;2022-10-16T07:22:07;12.63;;;3.97;;
34060;SDS011;20336;-33.424;-70.638;2022-10-16T07:24:34;10.83;;;4.00;;
34060;SDS011;20336;-33.424;-70.638;2022-10-16T07:27:01;7.67;;;3.70;;
34060;SDS011;20336;-33.424;-70.638;2022-10-16T07:29:28;10.37;;;4.10;;
34060;SDS011;20336;-33.424;-70.638;2022-10-16T07:31:55;11.63;;;4.33;;
34060;SDS011;20336;-33.424;-70.638;2022-10-16T07:34:21;6.60;;;3.53;;
34060;SDS011;20336;-33.424;-70.638;2022-10-16T07:36:49;9.70;;;4.17;;
34060;SDS011;20336;-33.424;-70.638;2022-10-16T07:39:16;8.57;;;3.60;;
34060;SDS011;20336;-33.424;-70.638;2022-10-16T07:41:43;11.50;;;3.40;;
34060;SDS011;20336;-33.424;-70.638;2022-10-16T07:44:10;9.87;;;4.17;;
34060;SDS011;20336;-33.424;-70.638;2022-10-16T07:46:37;11.43;;;3.33;;
34060;SDS011;20336;-33.424;-70.638;2022-10-16T07:49:04;8.47;;;3.50;;
34060;SDS011;20336;-33.424;-70.638;2022-10-16T07:51:30;12.03;;;3.80;;
34060;SDS011;20336;-33.424;-70.638;2022-10-16T07:53:58;10.47;;;3.33;;
34060;SDS011;20336;-33.424;-70.638;2022-10-16T07:56:24;15.17;;;3.53;;
34060;SDS011;20336;-33.424;-70.638;2022-10-16T07:58:51;10.07;;;3.50;;
34060;SDS011;20336;-33.424;-70.638;2022-10-16T08:01:19;8.47;;;3.77;;
34060;SDS011;20336;-33.424;-70.638;2022-10-16T08:03:47;10.23;;;3.90;;
34060;SDS011;20336;-33.424;-70.638;2022-10-16T08:06:14;8.93;;;3.83;;
34060;SDS011;20336;-33.424;-70.638;2022-10-16T08:08:41;12.13;;;3.77;;
34060;SDS011;20336;-33.424;-70.638;2022-10-16T08:11:08;7.77;;;3.30;;
34060;SDS011;20336;-33.424;-70.638;2022-10-16T08:13:35;11.23;;;4.10;;
34060;SDS011;20336;-33.424;-70.638;2022-10-16T08:16:02;9.90;;;3.43;;
34060;SDS011;20336;-33.424;-70.638;2022-10-16T08:18:34;8.23;;;3.50;;
34060;SDS011;20336;-33.424;-70.638;2022-10-16T08:21:01;12.03;;;3.93;;
34060;SDS011;20336;-33.424;-70.638;2022-10-16T08:23:28;8.20;;;3.30;;
34060;SDS011;20336;-33.424;-70.638;2022-10-16T08:25:55;8.00;;;3.23;;
34060;SDS011;20336;-33.424;-70.638;2022-10-16T08:28:22;8.57;;;2.60;;
34060;SDS011;20336;-33.424;-70.638;2022-10-16T08:30:50;8.00;;;3.10;;
34060;SDS011;20336;-33.424;-70.638;2022-10-16T08:33:16;9.57;;;3.23;;
34060;SDS011;20336;-33.424;-70.638;2022-10-16T08:35:50;7.37;;;3.17;;
34060;SDS011;20336;-33.424;-70.638;2022-10-16T08:38:17;9.07;;;2.73;;
34060;SDS011;20336;-33.424;-70.638;2022-10-16T08:40:44;9.70;;;2.87;;
34060;SDS011;20336;-33.424;-70.638;2022-10-16T08:43:19;11.23;;;2.90;;
34060;SDS011;20336;-33.424;-70.638;2022-10-16T08:48:47;8.23;;;2.87;;
34060;SDS011;20336;-33.424;-70.638;2022-10-16T08:51:24;8.57;;;3.30;;
34060;SDS011;20336;-33.424;-70.638;2022-10-16T08:56:18;6.67;;;3.40;;
34060;SDS011;20336;-33.424;-70.638;2022-10-16T08:58:45;6.30;;;3.20;;
34060;SDS011;20336;-33.424;-70.638;2022-10-16T09:01:13;9.80;;;3.10;;
34060;SDS011;20336;-33.424;-70.638;2022-10-16T09:08:52;59.27;;;9.03;;
34060;SDS011;20336;-33.424;-70.638;2022-10-16T09:16:39;51.37;;;7.20;;
34060;SDS011;20336;-33.424;-70.638;2022-10-16T09:19:15;43.80;;;7.23;;
34060;SDS011;20336;-33.424;-70.638;2022-10-16T09:21:44;21.23;;;5.10;;
34060;SDS011;20336;-33.424;-70.638;2022-10-16T09:24:17;17.77;;;3.77;;
34060;SDS011;20336;-33.424;-70.638;2022-10-16T09:26:44;10.07;;;3.57;;
34060;SDS011;20336;-33.424;-70.638;2022-10-16T09:29:15;11.23;;;3.20;;
34060;SDS011;20336;-33.424;-70.638;2022-10-16T09:31:42;10.10;;;3.00;;
34060;SDS011;20336;-33.424;-70.638;2022-10-16T09:34:25;9.90;;;3.60;;
34060;SDS011;20336;-33.424;-70.638;2022-10-16T09:36:53;10.50;;;3.00;;
34060;SDS011;20336;-33.424;-70.638;2022-10-16T09:39:20;9.90;;;3.60;;
34060;SDS011;20336;-33.424;-70.638;2022-10-16T09:41:47;7.37;;;2.97;;
34060;SDS011;20336;-33.424;-70.638;2022-10-16T09:44:17;8.53;;;2.83;;
34060;SDS011;20336;-33.424;-70.638;2022-10-16T09:46:45;7.27;;;3.27;;
34060;SDS011;20336;-33.424;-70.638;2022-10-16T09:49:19;11.53;;;3.23;;
34060;SDS011;20336;-33.424;-70.638;2022-10-16T09:51:47;12.63;;;3.53;;
34060;SDS011;20336;-33.424;-70.638;2022-10-16T09:54:15;9.27;;;3.37;;
34060;SDS011;20336;-33.424;-70.638;2022-10-16T09:56:42;8.03;;;2.97;;
34060;SDS011;20336;-33.424;-70.638;2022-10-16T09:59:15;9.73;;;3.03;;
34060;SDS011;20336;-33.424;-70.638;2022-10-16T10:01:47;10.43;;;3.70;;
34060;SDS011;20336;-33.424;-70.638;2022-10-16T10:04:15;7.67;;;3.07;;
34060;SDS011;20336;-33.424;-70.638;2022-10-16T10:06:49;7.80;;;3.53;;
34060;SDS011;20336;-33.424;-70.638;2022-10-16T10:09:20;10.83;;;3.97;;
34060;SDS011;20336;-33.424;-70.638;2022-10-16T10:11:49;7.57;;;3.40;;
34060;SDS011;20336;-33.424;-70.638;2022-10-16T10:16:43;10.90;;;3.47;;
34060;SDS011;20336;-33.424;-70.638;2022-10-16T10:19:28;11.70;;;3.60;;
34060;SDS011;20336;-33.424;-70.638;2022-10-16T10:21:54;14.77;;;4.10;;
34060;SDS011;20336;-33.424;-70.638;2022-10-16T10:24:21;8.43;;;3.53;;
34060;SDS011;20336;-33.424;-70.638;2022-10-16T10:27:00;12.40;;;3.93;;
34060;SDS011;20336;-33.424;-70.638;2022-10-16T10:29:39;12.17;;;3.93;;
34060;SDS011;20336;-33.424;-70.638;2022-10-16T10:39:55;10.57;;;3.90;;
34060;SDS011;20336;-33.424;-70.638;2022-10-16T10:42:26;11.90;;;4.17;;
34060;SDS011;20336;-33.424;-70.638;2022-10-16T10:52:43;9.90;;;3.67;;
34060;SDS011;20336;-33.424;-70.638;2022-10-16T10:55:18;15.17;;;4.53;;
34060;SDS011;20336;-33.424;-70.638;2022-10-16T11:03:07;13.00;;;4.67;;
34060;SDS011;20336;-33.424;-70.638;2022-10-16T11:05:44;12.17;;;4.40;;
34060;SDS011;20336;-33.424;-70.638;2022-10-16T11:13:28;13.63;;;5.00;;
34060;SDS011;20336;-33.424;-70.638;2022-10-16T11:15:58;13.23;;;4.63;;
34060;SDS011;20336;-33.424;-70.638;2022-10-16T11:21:11;17.03;;;4.70;;
34060;SDS011;20336;-33.424;-70.638;2022-10-16T11:23:43;16.60;;;4.63;;
34060;SDS011;20336;-33.424;-70.638;2022-10-16T11:26:16;15.20;;;4.57;;
34060;SDS011;20336;-33.424;-70.638;2022-10-16T11:28:46;13.07;;;4.33;;
34060;SDS011;20336;-33.424;-70.638;2022-10-16T11:33:49;14.00;;;5.07;;
34060;SDS011;20336;-33.424;-70.638;2022-10-16T11:41:34;9.07;;;3.87;;
34060;SDS011;20336;-33.424;-70.638;2022-10-16T11:44:16;14.47;;;4.43;;
34060;SDS011;20336;-33.424;-70.638;2022-10-16T11:46:53;11.70;;;4.47;;
34060;SDS011;20336;-33.424;-70.638;2022-10-16T11:49:25;14.50;;;4.53;;
34060;SDS011;20336;-33.424;-70.638;2022-10-16T11:52:06;13.97;;;4.97;;
34060;SDS011;20336;-33.424;-70.638;2022-10-16T11:57:09;10.13;;;4.43;;
34060;SDS011;20336;-33.424;-70.638;2022-10-16T12:04:50;13.23;;;4.83;;
34060;SDS011;20336;-33.424;-70.638;2022-10-16T12:07:22;16.97;;;4.10;;
34060;SDS011;20336;-33.424;-70.638;2022-10-16T12:09:50;14.27;;;4.37;;
34060;SDS011;20336;-33.424;-70.638;2022-10-16T12:15:29;11.77;;;4.40;;
34060;SDS011;20336;-33.424;-70.638;2022-10-16T12:17:56;11.97;;;4.60;;
34060;SDS011;20336;-33.424;-70.638;2022-10-16T12:20:24;17.73;;;4.80;;
34060;SDS011;20336;-33.424;-70.638;2022-10-16T12:25:39;13.60;;;4.13;;
34060;SDS011;20336;-33.424;-70.638;2022-10-16T12:30:41;12.60;;;5.17;;
34060;SDS011;20336;-33.424;-70.638;2022-10-16T12:36:13;13.60;;;5.53;;
34060;SDS011;20336;-33.424;-70.638;2022-10-16T12:38:50;22.87;;;6.00;;
34060;SDS011;20336;-33.424;-70.638;2022-10-16T12:41:25;18.00;;;6.10;;
34060;SDS011;20336;-33.424;-70.638;2022-10-16T12:43:52;15.45;;;5.18;;
34060;SDS011;20336;-33.424;-70.638;2022-10-16T12:48:46;22.63;;;5.90;;
34060;SDS011;20336;-33.424;-70.638;2022-10-16T12:53:57;21.33;;;7.03;;
34060;SDS011;20336;-33.424;-70.638;2022-10-16T12:56:27;20.17;;;6.68;;
34060;SDS011;20336;-33.424;-70.638;2022-10-16T13:07:10;19.95;;;7.20;;
34060;SDS011;20336;-33.424;-70.638;2022-10-16T13:17:45;16.67;;;6.88;;
34060;SDS011;20336;-33.424;-70.638;2022-10-16T13:30:42;14.27;;;6.53;;
34060;SDS011;20336;-33.424;-70.638;2022-10-16T13:33:17;12.27;;;5.82;;
34060;SDS011;20336;-33.424;-70.638;2022-10-16T13:35:47;14.48;;;6.80;;
34060;SDS011;20336;-33.424;-70.638;2022-10-16T13:38:16;24.67;;;6.53;;
34060;SDS011;20336;-33.424;-70.638;2022-10-16T13:40:56;15.55;;;5.78;;
34060;SDS011;20336;-33.424;-70.638;2022-10-16T13:45:58;16.83;;;5.82;;
34060;SDS011;20336;-33.424;-70.638;2022-10-16T13:48:25;15.80;;;5.82;;
34060;SDS011;20336;-33.424;-70.638;2022-10-16T13:51:25;14.05;;;6.20;;
34060;SDS011;20336;-33.424;-70.638;2022-10-16T13:53:45;15.35;;;5.63;;
34060;SDS011;20336;-33.424;-70.638;2022-10-16T13:56:13;17.42;;;5.78;;
34060;SDS011;20336;-33.424;-70.638;2022-10-16T13:58:41;14.65;;;6.07;;
34060;SDS011;20336;-33.424;-70.638;2022-10-16T14:01:22;17.92;;;6.45;;
34060;SDS011;20336;-33.424;-70.638;2022-10-16T14:03:50;15.48;;;6.10;;
34060;SDS011;20336;-33.424;-70.638;2022-10-16T14:06:20;12.70;;;5.82;;
34060;SDS011;20336;-33.424;-70.638;2022-10-16T14:08:55;18.83;;;6.78;;
34060;SDS011;20336;-33.424;-70.638;2022-10-16T14:11:23;14.32;;;6.20;;
34060;SDS011;20336;-33.424;-70.638;2022-10-16T14:13:50;15.68;;;5.70;;
34060;SDS011;20336;-33.424;-70.638;2022-10-16T14:16:18;14.23;;;6.03;;
34060;SDS011;20336;-33.424;-70.638;2022-10-16T14:18:49;19.88;;;6.85;;
34060;SDS011;20336;-33.424;-70.638;2022-10-16T14:21:21;12.32;;;5.80;;
34060;SDS011;20336;-33.424;-70.638;2022-10-16T14:23:47;18.60;;;6.68;;
34060;SDS011;20336;-33.424;-70.638;2022-10-16T14:26:16;17.83;;;6.28;;
34060;SDS011;20336;-33.424;-70.638;2022-10-16T14:28:43;16.85;;;6.60;;
34060;SDS011;20336;-33.424;-70.638;2022-10-16T14:31:32;16.27;;;5.55;;
34060;SDS011;20336;-33.424;-70.638;2022-10-16T14:33:58;12.88;;;6.65;;
34060;SDS011;20336;-33.424;-70.638;2022-10-16T14:36:26;25.10;;;7.38;;
34060;SDS011;20336;-33.424;-70.638;2022-10-16T14:39:03;17.85;;;7.45;;
34060;SDS011;20336;-33.424;-70.638;2022-10-16T14:41:31;12.88;;;6.75;;
34060;SDS011;20336;-33.424;-70.638;2022-10-16T14:44:02;18.17;;;6.60;;
34060;SDS011;20336;-33.424;-70.638;2022-10-16T14:46:34;14.85;;;5.90;;
34060;SDS011;20336;-33.424;-70.638;2022-10-16T14:49:12;19.95;;;8.23;;
34060;SDS011;20336;-33.424;-70.638;2022-10-16T14:51:40;17.38;;;7.90;;
34060;SDS011;20336;-33.424;-70.638;2022-10-16T14:54:09;23.13;;;8.68;;
34060;SDS011;20336;-33.424;-70.638;2022-10-16T14:56:54;19.27;;;8.20;;
34060;SDS011;20336;-33.424;-70.638;2022-10-16T14:59:24;17.27;;;7.85;;
34060;SDS011;20336;-33.424;-70.638;2022-10-16T15:01:52;15.68;;;8.60;;
34060;SDS011;20336;-33.424;-70.638;2022-10-16T15:04:18;21.00;;;8.85;;
34060;SDS011;20336;-33.424;-70.638;2022-10-16T15:06:45;23.77;;;8.85;;
34060;SDS011;20336;-33.424;-70.638;2022-10-16T15:09:12;23.13;;;8.95;;
34060;SDS011;20336;-33.424;-70.638;2022-10-16T15:11:39;18.25;;;8.95;;
34060;SDS011;20336;-33.424;-70.638;2022-10-16T15:14:08;17.73;;;8.20;;
34060;SDS011;20336;-33.424;-70.638;2022-10-16T15:16:35;11.75;;;6.22;;
34060;SDS011;20336;-33.424;-70.638;2022-10-16T15:19:02;18.17;;;6.97;;
34060;SDS011;20336;-33.424;-70.638;2022-10-16T15:21:30;16.85;;;7.00;;
34060;SDS011;20336;-33.424;-70.638;2022-10-16T15:23:58;23.55;;;8.80;;
34060;SDS011;20336;-33.424;-70.638;2022-10-16T15:26:26;16.67;;;7.18;;
34060;SDS011;20336;-33.424;-70.638;2022-10-16T15:28:53;17.55;;;6.72;;
34060;SDS011;20336;-33.424;-70.638;2022-10-16T15:31:20;16.60;;;5.63;;
34060;SDS011;20336;-33.424;-70.638;2022-10-16T15:33:51;15.25;;;6.18;;
34060;SDS011;20336;-33.424;-70.638;2022-10-16T15:36:24;16.30;;;6.30;;
34060;SDS011;20336;-33.424;-70.638;2022-10-16T15:38:52;11.85;;;5.93;;
34060;SDS011;20336;-33.424;-70.638;2022-10-16T15:41:19;11.90;;;6.25;;
34060;SDS011;20336;-33.424;-70.638;2022-10-16T15:43:47;14.05;;;6.50;;
34060;SDS011;20336;-33.424;-70.638;2022-10-16T15:46:17;18.50;;;6.70;;
34060;SDS011;20336;-33.424;-70.638;2022-10-16T15:48:44;17.58;;;5.95;;
34060;SDS011;20336;-33.424;-70.638;2022-10-16T15:51:11;16.42;;;7.57;;
34060;SDS011;20336;-33.424;-70.638;2022-10-16T15:53:38;24.08;;;8.85;;
34060;SDS011;20336;-33.424;-70.638;2022-10-16T15:56:05;17.88;;;9.25;;
34060;SDS011;20336;-33.424;-70.638;2022-10-16T15:58:33;16.70;;;8.07;;
34060;SDS011;20336;-33.424;-70.638;2022-10-16T16:01:00;14.27;;;6.53;;
34060;SDS011;20336;-33.424;-70.638;2022-10-16T16:03:28;16.02;;;6.65;;
34060;SDS011;20336;-33.424;-70.638;2022-10-16T16:05:56;14.98;;;7.15;;
34060;SDS011;20336;-33.424;-70.638;2022-10-16T16:08:23;16.35;;;7.25;;
34060;SDS011;20336;-33.424;-70.638;2022-10-16T16:10:59;20.40;;;8.43;;
34060;SDS011;20336;-33.424;-70.638;2022-10-16T16:13:26;18.00;;;7.63;;
34060;SDS011;20336;-33.424;-70.638;2022-10-16T16:15:53;14.90;;;7.60;;
34060;SDS011;20336;-33.424;-70.638;2022-10-16T16:18:20;17.45;;;6.95;;
34060;SDS011;20336;-33.424;-70.638;2022-10-16T16:20:47;13.55;;;6.75;;